createdAt,value
2019-04-27T00:00:39.573Z,97
2019-04-27T00:01:40.585Z,97
2019-04-27T00:02:39.755Z,97
2019-04-27T00:03:41.203Z,97
2019-04-27T00:04:39.585Z,97
2019-04-27T00:05:40.564Z,97
2019-04-27T00:06:42.352Z,97
2019-04-27T00:07:39.617Z,97
2019-04-27T00:08:39.870Z,97
2019-04-27T00:09:41.221Z,96
2019-04-27T00:10:39.669Z,96
2019-04-27T00:11:41.570Z,96
2019-04-27T00:12:40.104Z,97
2019-04-27T00:13:40.432Z,97
2019-04-27T00:14:40.051Z,97
2019-04-27T00:15:43.834Z,97
2019-04-27T00:16:40.387Z,97
2019-04-27T00:17:45.842Z,97
2019-04-27T00:18:39.661Z,97
2019-04-27T00:19:39.675Z,97
2019-04-27T00:20:39.925Z,97
2019-04-27T00:21:39.641Z,97
2019-04-27T00:22:39.816Z,97
2019-04-27T00:23:39.833Z,97
2019-04-27T00:24:39.946Z,97
2019-04-27T00:30:35.715Z,97
2019-04-27T00:30:45.216Z,97
2019-04-27T00:31:45.486Z,97
2019-04-27T00:32:45.262Z,97
2019-04-27T00:33:45.490Z,97
2019-04-27T00:34:45.712Z,97
2019-04-27T00:35:45.463Z,97
2019-04-27T00:36:45.291Z,97
2019-04-27T00:37:45.491Z,97
2019-04-27T00:38:46.460Z,97
2019-04-27T00:39:45.502Z,97
2019-04-27T00:40:45.238Z,97
2019-04-27T00:41:45.437Z,97
2019-04-27T00:42:45.763Z,97
2019-04-27T00:43:45.745Z,97
2019-04-27T00:44:45.461Z,97
2019-04-27T00:45:45.268Z,97
2019-04-27T00:46:45.262Z,97
2019-04-27T00:55:55.526Z,97
2019-04-27T00:56:03.928Z,97
2019-04-27T00:57:03.314Z,97
2019-04-27T00:58:04.197Z,97
2019-04-27T00:59:03.596Z,97
2019-04-27T01:00:04.926Z,97
2019-04-27T01:01:04.123Z,97
2019-04-27T01:02:03.761Z,97
2019-04-27T01:03:03.760Z,97
2019-04-27T01:04:03.747Z,97
2019-04-27T01:06:16.648Z,97
2019-04-27T01:07:15.795Z,97
2019-04-27T01:08:15.775Z,97
2019-04-27T01:09:15.840Z,97
2019-04-27T01:10:16.203Z,97
2019-04-27T01:11:16.210Z,97
2019-04-27T01:12:16.237Z,97
2019-04-27T01:13:15.817Z,97
2019-04-27T01:14:15.913Z,97
2019-04-27T01:15:16.258Z,97
2019-04-27T01:16:19.403Z,97
2019-04-27T01:17:15.975Z,97
2019-04-27T01:18:16.318Z,97
2019-04-27T01:19:16.017Z,97
2019-04-27T01:20:16.241Z,97
2019-04-27T01:21:16.033Z,97
2019-04-27T01:22:15.830Z,97
2019-04-27T01:23:16.253Z,97
2019-04-27T01:24:16.290Z,97
2019-04-27T01:25:16.242Z,97
2019-04-27T01:37:21.093Z,97
2019-04-27T01:38:21.068Z,97
2019-04-27T01:39:21.315Z,97
2019-04-27T01:40:20.837Z,97
2019-04-27T01:41:22.094Z,97
2019-04-27T01:42:21.056Z,97
2019-04-27T01:43:21.350Z,97
2019-04-27T01:44:20.995Z,97
2019-04-27T01:45:20.920Z,97
2019-04-27T01:46:20.925Z,97
2019-04-27T01:47:31.643Z,97
2019-04-27T01:48:23.770Z,97
2019-04-27T01:49:20.897Z,97
2019-04-27T01:50:20.868Z,97
2019-04-27T01:51:21.203Z,97
2019-04-27T01:52:21.039Z,97
2019-04-27T01:53:21.507Z,97
2019-04-27T01:54:20.854Z,97
2019-04-27T01:55:20.995Z,97
2019-04-27T01:56:20.856Z,97
2019-04-27T01:59:28.274Z,97
2019-04-27T02:00:26.687Z,97
2019-04-27T02:01:28.659Z,97
2019-04-27T02:02:27.005Z,97
2019-04-27T02:03:33.138Z,97
2019-04-27T02:04:27.065Z,97
2019-04-27T02:05:28.593Z,97
2019-04-27T02:06:26.622Z,97
2019-04-27T02:07:26.621Z,97
2019-04-27T02:08:26.615Z,97
2019-04-27T02:10:39.644Z,97
2019-04-27T02:11:39.339Z,97
2019-04-27T02:12:39.735Z,97
2019-04-27T02:13:39.564Z,97
2019-04-27T02:14:40.687Z,97
2019-04-27T02:15:39.630Z,97
2019-04-27T02:16:40.255Z,97
2019-04-27T02:17:39.601Z,97
2019-04-27T02:18:40.024Z,97
2019-04-27T02:19:39.387Z,97
2019-04-27T02:20:39.353Z,97
2019-04-27T02:21:39.312Z,97
2019-04-27T02:22:39.206Z,97
2019-04-27T02:23:39.351Z,97
2019-04-27T02:24:39.440Z,97
2019-04-27T02:25:39.716Z,97
2019-04-27T02:26:39.860Z,97
2019-04-27T02:27:39.211Z,97
2019-04-27T02:28:41.343Z,97
2019-04-27T02:29:39.428Z,97
2019-04-27T02:30:40.887Z,97
2019-04-27T02:31:40.298Z,97
2019-04-27T02:32:39.709Z,97
2019-04-27T02:33:40.373Z,97
2019-04-27T02:34:39.836Z,97
2019-04-27T02:35:41.813Z,97
2019-04-27T02:36:39.398Z,97
2019-04-27T02:37:40.230Z,97
2019-04-27T02:38:40.548Z,97
2019-04-27T02:39:39.881Z,97
2019-04-27T02:40:42.499Z,97
2019-04-27T02:41:39.937Z,97
2019-04-27T02:42:39.346Z,97
2019-04-27T02:43:39.940Z,97
2019-04-27T02:44:40.354Z,97
2019-04-27T02:45:40.296Z,97
2019-04-27T02:46:39.495Z,97
2019-04-27T02:47:40.796Z,97
2019-04-27T02:48:51.931Z,97
2019-04-27T02:49:40.476Z,97
2019-04-27T02:50:39.885Z,97
2019-04-27T02:51:42.528Z,97
2019-04-27T02:52:40.380Z,97
2019-04-27T02:53:39.311Z,97
2019-04-27T02:54:39.936Z,97
2019-04-27T02:55:39.687Z,97
2019-04-27T02:56:40.446Z,97
2019-04-27T02:57:39.958Z,97
2019-04-27T02:58:40.686Z,97
2019-04-27T02:59:39.937Z,97
2019-04-27T03:00:40.029Z,97
2019-04-27T03:01:43.439Z,97
2019-04-27T03:02:40.075Z,97
2019-04-27T03:03:41.074Z,97
2019-04-27T03:04:39.900Z,97
2019-04-27T03:05:40.166Z,97
2019-04-27T03:06:39.898Z,97
2019-04-27T03:07:39.941Z,97
2019-04-27T03:08:42.041Z,97
2019-04-27T03:09:39.777Z,97
2019-04-27T03:10:40.078Z,97
2019-04-27T03:11:39.527Z,97
2019-04-27T03:12:39.860Z,97
2019-04-27T03:13:40.513Z,97
2019-04-27T03:14:40.249Z,97
2019-04-27T03:15:40.304Z,97
2019-04-27T03:16:39.596Z,97
2019-04-27T03:17:39.689Z,97
2019-04-27T03:18:40.377Z,97
2019-04-27T03:19:39.850Z,97
2019-04-27T03:20:40.197Z,97
2019-04-27T03:21:39.586Z,97
2019-04-27T03:22:39.916Z,97
2019-04-27T03:23:41.203Z,97
2019-04-27T03:24:39.484Z,97
2019-04-27T03:25:40.358Z,97
2019-04-27T03:26:41.755Z,97
2019-04-27T03:27:40.425Z,97
2019-04-27T03:28:40.038Z,97
2019-04-27T03:29:39.342Z,97
2019-04-27T03:30:42.087Z,97
2019-04-27T03:31:41.876Z,97
2019-04-27T03:32:42.762Z,97
2019-04-27T03:33:42.661Z,97
2019-04-27T03:34:41.697Z,97
2019-04-27T03:35:42.712Z,97
2019-04-27T03:36:40.069Z,97
2019-04-27T03:37:40.540Z,97
2019-04-27T03:38:39.838Z,97
2019-04-27T03:39:40.097Z,97
2019-04-27T03:40:40.224Z,97
2019-04-27T03:41:41.070Z,97
2019-04-27T03:42:40.327Z,97
2019-04-27T03:43:40.284Z,97
2019-04-27T03:44:39.875Z,97
2019-04-27T03:45:40.168Z,97
2019-04-27T03:46:41.034Z,97
2019-04-27T03:47:40.507Z,97
2019-04-27T03:48:40.617Z,97
2019-04-27T03:49:41.529Z,97
2019-04-27T03:50:39.790Z,97
2019-04-27T03:51:40.159Z,97
2019-04-27T03:52:39.800Z,97
2019-04-27T03:53:39.624Z,97
2019-04-27T03:54:40.274Z,97
2019-04-27T03:55:42.656Z,97
2019-04-27T03:56:39.970Z,97
2019-04-27T03:57:40.318Z,97
2019-04-27T03:58:39.796Z,97
2019-04-27T03:59:40.475Z,97
2019-04-27T04:00:40.043Z,97
2019-04-27T04:01:50.592Z,97
2019-04-27T04:02:40.379Z,97
2019-04-27T04:03:39.904Z,97
2019-04-27T04:04:40.642Z,97
2019-04-27T04:05:39.834Z,97
2019-04-27T04:06:39.945Z,97
2019-04-27T04:07:40.079Z,97
2019-04-27T04:08:40.023Z,97
2019-04-27T04:09:40.100Z,97
2019-04-27T04:10:41.802Z,97
2019-04-27T04:11:39.632Z,97
2019-04-27T04:12:40.118Z,97
2019-04-27T04:13:39.814Z,97
2019-04-27T04:14:42.459Z,97
2019-04-27T04:15:39.970Z,97
2019-04-27T04:16:39.616Z,97
2019-04-27T04:17:40.309Z,97
2019-04-27T04:18:40.139Z,97
2019-04-27T04:19:48.854Z,97
2019-04-27T04:20:40.503Z,97
2019-04-27T04:21:40.254Z,97
2019-04-27T04:22:40.284Z,97
2019-04-27T04:23:40.231Z,97
2019-04-27T04:24:39.824Z,97
2019-04-27T04:25:40.821Z,97
2019-04-27T04:26:40.403Z,97
2019-04-27T04:27:42.500Z,97
2019-04-27T04:28:39.866Z,97
2019-04-27T04:29:39.957Z,97
2019-04-27T04:30:40.155Z,97
2019-04-27T04:31:40.481Z,97
2019-04-27T04:32:39.718Z,97
2019-04-27T04:33:40.318Z,97
2019-04-27T04:34:39.947Z,97
2019-04-27T04:35:40.018Z,97
2019-04-27T04:36:42.500Z,97
2019-04-27T04:37:39.530Z,97
2019-04-27T04:38:40.178Z,97
2019-04-27T04:39:40.263Z,97
2019-04-27T04:40:40.083Z,97
2019-04-27T04:41:43.221Z,97
2019-04-27T04:42:39.486Z,97
2019-04-27T04:43:39.988Z,97
2019-04-27T04:44:40.056Z,97
2019-04-27T04:45:40.231Z,97
2019-04-27T04:46:40.006Z,97
2019-04-27T04:47:40.607Z,97
2019-04-27T04:48:40.375Z,97
2019-04-27T04:49:40.049Z,97
2019-04-27T04:50:39.902Z,97
2019-04-27T04:51:40.693Z,97
2019-04-27T04:52:42.309Z,97
2019-04-27T04:53:40.663Z,97
2019-04-27T04:54:40.928Z,97
2019-04-27T04:55:39.854Z,97
2019-04-27T04:56:39.731Z,97
2019-04-27T04:57:40.202Z,97
2019-04-27T04:58:41.333Z,97
2019-04-27T04:59:39.935Z,97
2019-04-27T05:00:40.019Z,97
2019-04-27T05:01:39.937Z,97
2019-04-27T05:02:39.843Z,97
2019-04-27T05:03:39.521Z,97
2019-04-27T05:04:39.486Z,97
2019-04-27T05:05:41.320Z,97
2019-04-27T05:06:39.913Z,97
2019-04-27T05:07:39.699Z,97
2019-04-27T05:08:39.510Z,97
2019-04-27T05:09:39.989Z,97
2019-04-27T05:10:39.950Z,97
2019-04-27T05:11:40.726Z,97
2019-04-27T05:12:39.536Z,97
2019-04-27T05:13:39.601Z,97
2019-04-27T05:14:39.552Z,97
2019-04-27T05:15:39.745Z,97
2019-04-27T05:16:39.514Z,97
2019-04-27T05:17:40.025Z,97
2019-04-27T05:18:39.570Z,97
2019-04-27T05:19:40.550Z,97
2019-04-27T05:20:39.831Z,97
2019-04-27T05:21:39.590Z,97
2019-04-27T05:22:39.690Z,97
2019-04-27T05:23:40.146Z,97
2019-04-27T05:24:39.622Z,97
2019-04-27T05:25:39.795Z,97
2019-04-27T05:26:39.839Z,97
2019-04-27T05:27:40.654Z,97
2019-04-27T05:28:40.747Z,97
2019-04-27T05:29:40.011Z,97
2019-04-27T05:30:39.539Z,97
2019-04-27T05:31:39.686Z,97
2019-04-27T05:32:39.753Z,97
2019-04-27T05:33:40.122Z,97
2019-04-27T05:34:39.601Z,97
2019-04-27T05:35:40.949Z,97
2019-04-27T05:36:41.637Z,97
2019-04-27T05:37:40.045Z,97
2019-04-27T05:38:45.519Z,97
2019-04-27T05:39:40.044Z,97
2019-04-27T05:40:39.874Z,97
2019-04-27T05:41:41.627Z,97
2019-04-27T05:42:39.956Z,97
2019-04-27T05:43:40.350Z,97
2019-04-27T05:44:45.477Z,97
2019-04-27T05:45:39.686Z,97
2019-04-27T05:46:39.844Z,97
2019-04-27T05:47:43.233Z,97
2019-04-27T05:48:39.782Z,97
2019-04-27T05:49:40.507Z,97
2019-04-27T05:50:45.326Z,97
2019-04-27T05:51:41.869Z,97
2019-04-27T05:52:40.979Z,97
2019-04-27T05:53:40.048Z,97
2019-04-27T05:54:39.583Z,97
2019-04-27T05:55:39.847Z,97
2019-04-27T05:56:39.632Z,97
2019-04-27T05:57:39.895Z,97
2019-04-27T05:58:40.024Z,97
2019-04-27T05:59:40.105Z,97
2019-04-27T06:00:40.123Z,97
2019-04-27T06:01:40.304Z,97
2019-04-27T06:02:39.934Z,97
2019-04-27T06:03:39.849Z,97
2019-04-27T06:04:41.346Z,97
2019-04-27T06:05:39.971Z,97
2019-04-27T06:06:39.983Z,97
2019-04-27T06:07:39.734Z,97
2019-04-27T06:08:40.114Z,97
2019-04-27T06:09:39.723Z,97
2019-04-27T06:10:39.670Z,97
2019-04-27T06:11:39.972Z,97
2019-04-27T06:12:39.677Z,97
2019-04-27T06:13:40.157Z,97
2019-04-27T06:14:39.659Z,97
2019-04-27T06:15:39.689Z,97
2019-04-27T06:16:39.838Z,97
2019-04-27T06:17:39.963Z,97
2019-04-27T06:18:39.885Z,97
2019-04-27T06:19:39.769Z,97
2019-04-27T06:20:48.295Z,97
2019-04-27T06:21:40.613Z,97
2019-04-27T06:22:39.707Z,97
2019-04-27T06:23:39.780Z,97
2019-04-27T06:24:40.072Z,97
2019-04-27T06:25:39.796Z,97
2019-04-27T06:26:40.162Z,97
2019-04-27T06:27:39.819Z,97
2019-04-27T06:28:39.923Z,97
2019-04-27T06:29:40.801Z,97
2019-04-27T06:30:39.687Z,97
2019-04-27T06:31:40.124Z,97
2019-04-27T06:32:39.898Z,97
2019-04-27T06:33:39.702Z,96
2019-04-27T06:34:39.746Z,96
2019-04-27T06:35:40.036Z,96
2019-04-27T06:36:40.119Z,96
2019-04-27T06:37:39.687Z,96
2019-04-27T06:38:39.747Z,96
2019-04-27T06:39:40.221Z,96
2019-04-27T06:40:39.749Z,96
2019-04-27T06:41:40.122Z,95
2019-04-27T06:42:40.042Z,95
2019-04-27T06:43:40.515Z,94
2019-04-27T06:44:39.939Z,94
2019-04-27T06:45:39.711Z,94
2019-04-27T06:46:40.433Z,93
2019-04-27T06:47:41.389Z,93
2019-04-27T06:48:39.727Z,92
2019-04-27T06:49:39.714Z,92
2019-04-27T06:50:39.824Z,92
2019-04-27T06:51:40.198Z,92
2019-04-27T06:52:39.842Z,92
2019-04-27T06:53:39.775Z,91
2019-04-27T06:54:40.164Z,91
2019-04-27T06:55:39.897Z,91
2019-04-27T06:56:40.217Z,91
2019-04-27T06:57:41.240Z,91
2019-04-27T06:58:40.755Z,91
2019-04-27T06:59:40.009Z,89
2019-04-27T07:00:39.919Z,89
2019-04-27T07:01:39.811Z,88
2019-04-27T07:02:40.191Z,88
2019-04-27T07:03:39.749Z,88
2019-04-27T07:04:39.945Z,86
2019-04-27T07:05:39.875Z,86
2019-04-27T07:06:51.107Z,86
2019-04-27T07:07:39.743Z,86
2019-04-27T07:08:40.059Z,86
2019-04-27T07:09:39.749Z,86
2019-04-27T07:10:40.208Z,86
2019-04-27T07:11:39.982Z,84
2019-04-27T07:12:40.994Z,84
2019-04-27T07:13:40.171Z,84
2019-04-27T07:14:50.326Z,84
2019-04-27T07:15:39.851Z,84
2019-04-27T07:16:40.179Z,82
2019-04-27T07:17:39.960Z,82
2019-04-27T07:18:39.788Z,82
2019-04-27T07:19:39.854Z,82
2019-04-27T07:20:40.304Z,82
2019-04-27T07:21:40.195Z,81
2019-04-27T07:22:39.767Z,81
2019-04-27T07:23:40.267Z,81
2019-04-27T07:24:40.581Z,81
2019-04-27T07:25:40.203Z,81
2019-04-27T07:26:40.273Z,81
2019-04-27T07:27:39.799Z,81
2019-04-27T07:28:40.970Z,81
2019-04-27T07:29:44.508Z,81
2019-04-27T07:30:39.825Z,81
2019-04-27T07:31:40.289Z,81
2019-04-27T07:32:39.808Z,81
2019-04-27T07:33:40.167Z,81
2019-04-27T07:34:40.314Z,79
2019-04-27T07:35:39.876Z,79
2019-04-27T07:36:40.047Z,79
2019-04-27T07:37:39.804Z,79
2019-04-27T07:38:40.253Z,79
2019-04-27T07:39:39.807Z,80
2019-04-27T07:40:41.771Z,80
2019-04-27T07:41:39.859Z,80
2019-04-27T07:42:41.374Z,78
2019-04-27T07:43:40.257Z,78
2019-04-27T07:44:39.846Z,79
2019-04-27T07:45:39.843Z,79
2019-04-27T07:46:39.845Z,79
2019-04-27T07:47:39.834Z,78
2019-04-27T07:48:39.975Z,78
2019-04-27T07:49:39.790Z,78
2019-04-27T07:50:40.119Z,78
2019-04-27T07:51:39.871Z,78
2019-04-27T07:52:40.507Z,77
2019-04-27T07:53:40.246Z,77
2019-04-27T07:54:41.029Z,77
2019-04-27T07:55:39.874Z,77
2019-04-27T07:56:40.001Z,77
2019-04-27T07:57:40.301Z,76
2019-04-27T07:58:40.207Z,76
2019-04-27T07:59:41.938Z,76
2019-04-27T08:00:40.274Z,76
2019-04-27T08:01:39.835Z,76
2019-04-27T08:02:39.845Z,75
2019-04-27T08:03:40.272Z,75
2019-04-27T08:04:40.269Z,75
2019-04-27T08:05:40.486Z,76
2019-04-27T08:06:39.878Z,76
2019-04-27T08:07:40.048Z,76
2019-04-27T08:08:40.019Z,76
2019-04-27T08:09:39.930Z,76
2019-04-27T08:10:40.044Z,76
2019-04-27T08:11:40.330Z,76
2019-04-27T08:12:40.051Z,76
2019-04-27T08:13:40.301Z,76
2019-04-27T08:14:39.863Z,76
2019-04-27T08:15:40.189Z,73
2019-04-27T08:16:39.913Z,73
2019-04-27T08:17:42.767Z,74
2019-04-27T08:18:40.299Z,74
2019-04-27T08:19:40.344Z,74
2019-04-27T08:20:40.003Z,74
2019-04-27T08:21:43.326Z,74
2019-04-27T08:22:39.910Z,75
2019-04-27T08:23:40.309Z,75
2019-04-27T08:24:40.075Z,75
2019-04-27T08:25:39.918Z,75
2019-04-27T08:27:16.289Z,75
2019-04-27T08:27:40.064Z,75
2019-04-27T08:28:39.869Z,76
2019-04-27T08:29:39.897Z,76
2019-04-27T08:30:40.376Z,75
2019-04-27T08:31:40.391Z,75
2019-04-27T08:32:41.432Z,75
2019-04-27T08:33:40.373Z,76
2019-04-27T08:34:40.153Z,76
2019-04-27T08:35:40.671Z,76
2019-04-27T08:36:39.936Z,76
2019-04-27T08:37:39.894Z,76
2019-04-27T08:38:40.107Z,75
2019-04-27T08:39:40.321Z,75
2019-04-27T08:40:40.311Z,75
2019-04-27T08:41:39.938Z,75
2019-04-27T08:42:40.424Z,75
2019-04-27T08:43:40.188Z,76
2019-04-27T08:44:39.945Z,76
2019-04-27T08:45:40.452Z,73
2019-04-27T08:46:40.376Z,73
2019-04-27T08:47:41.648Z,73
2019-04-27T08:48:39.998Z,74
2019-04-27T08:49:39.924Z,74
2019-04-27T08:50:41.950Z,72
2019-04-27T08:51:41.484Z,72
2019-04-27T08:52:41.749Z,72
2019-04-27T08:53:39.964Z,72
2019-04-27T08:54:39.915Z,72
2019-04-27T08:55:40.119Z,74
2019-04-27T08:56:39.912Z,74
2019-04-27T08:57:40.171Z,74
2019-04-27T08:58:39.909Z,73
2019-04-27T08:59:39.965Z,73
2019-04-27T09:00:40.090Z,73
2019-04-27T09:01:39.983Z,73
2019-04-27T09:02:44.546Z,73
2019-04-27T09:03:40.030Z,74
2019-04-27T09:04:40.471Z,74
2019-04-27T09:05:40.059Z,74
2019-04-27T09:06:40.445Z,72
2019-04-27T09:07:39.993Z,72
2019-04-27T09:08:41.212Z,71
2019-04-27T09:09:40.156Z,71
2019-04-27T09:10:39.976Z,71
2019-04-27T09:11:40.161Z,71
2019-04-27T09:12:41.478Z,71
2019-04-27T09:13:41.268Z,73
2019-04-27T09:14:40.760Z,73
2019-04-27T09:15:40.233Z,73
2019-04-27T09:16:40.086Z,71
2019-04-27T09:17:40.168Z,71
2019-04-27T09:18:40.974Z,71
2019-04-27T09:19:40.430Z,71
2019-04-27T09:20:40.289Z,71
2019-04-27T09:21:40.409Z,70
2019-04-27T09:22:40.452Z,70
2019-04-27T09:23:40.208Z,67
2019-04-27T09:24:40.017Z,67
2019-04-27T09:25:40.470Z,67
2019-04-27T09:26:40.416Z,68
2019-04-27T09:27:40.810Z,68
2019-04-27T09:28:40.445Z,68
2019-04-27T09:29:40.221Z,68
2019-04-27T09:30:40.109Z,68
2019-04-27T09:31:40.430Z,68
2019-04-27T09:32:40.721Z,68
2019-04-27T09:33:40.046Z,68
2019-04-27T09:34:40.230Z,68
2019-04-27T09:35:40.331Z,68
2019-04-27T09:36:40.181Z,70
2019-04-27T09:37:40.441Z,70
2019-04-27T09:38:40.520Z,70
2019-04-27T09:39:40.048Z,70
2019-04-27T09:40:40.066Z,70
2019-04-27T09:41:40.466Z,70
2019-04-27T09:42:40.003Z,70
2019-04-27T09:43:40.479Z,70
2019-04-27T09:44:40.245Z,70
2019-04-27T09:45:40.077Z,70
2019-04-27T09:46:40.482Z,71
2019-04-27T09:47:40.560Z,71
2019-04-27T09:48:40.213Z,71
2019-04-27T09:49:40.557Z,72
2019-04-27T09:50:40.087Z,72
2019-04-27T09:51:40.011Z,68
2019-04-27T09:52:40.035Z,68
2019-04-27T09:53:40.257Z,68
2019-04-27T09:54:40.274Z,68
2019-04-27T09:55:40.235Z,68
2019-04-27T09:56:40.503Z,66
2019-04-27T09:57:40.103Z,66
2019-04-27T09:58:40.265Z,66
2019-04-27T09:59:40.163Z,65
2019-04-27T10:00:40.041Z,65
2019-04-27T10:01:40.075Z,65
2019-04-27T10:03:32.609Z,67
2019-04-27T10:03:40.274Z,67
2019-04-27T10:04:40.254Z,68
2019-04-27T10:05:40.606Z,68
2019-04-27T10:06:40.244Z,68
2019-04-27T10:07:40.802Z,65
2019-04-27T10:08:40.680Z,65
2019-04-27T10:09:40.655Z,65
2019-04-27T10:10:40.359Z,65
2019-04-27T10:11:40.433Z,65
2019-04-27T10:12:40.448Z,66
2019-04-27T10:13:40.497Z,66
2019-04-27T10:14:40.282Z,66
2019-04-27T10:15:40.271Z,66
2019-04-27T10:16:40.320Z,66
2019-04-27T10:17:40.448Z,66
2019-04-27T10:18:40.485Z,66
2019-04-27T10:19:40.302Z,66
2019-04-27T10:20:41.050Z,66
2019-04-27T10:21:40.504Z,66
2019-04-27T10:22:43.368Z,65
2019-04-27T10:23:40.338Z,65
2019-04-27T10:24:40.337Z,66
2019-04-27T10:25:40.816Z,66
2019-04-27T10:26:40.402Z,66
2019-04-27T10:27:40.748Z,67
2019-04-27T10:28:40.535Z,67
2019-04-27T10:29:40.309Z,67
2019-04-27T10:30:40.771Z,67
2019-04-27T10:31:40.775Z,67
2019-04-27T10:32:42.666Z,69
2019-04-27T10:33:40.517Z,69
2019-04-27T10:34:40.340Z,69
2019-04-27T10:35:40.468Z,67
2019-04-27T10:36:40.527Z,67
2019-04-27T10:37:40.752Z,67
2019-04-27T10:38:40.640Z,67
2019-04-27T10:39:40.355Z,67
2019-04-27T10:40:40.335Z,69
2019-04-27T10:41:40.317Z,69
2019-04-27T10:42:40.361Z,69
2019-04-27T10:43:40.539Z,69
2019-04-27T10:44:40.335Z,69
2019-04-27T10:45:40.399Z,73
2019-04-27T10:46:40.310Z,73
2019-04-27T10:47:40.440Z,76
2019-04-27T10:48:40.335Z,76
2019-04-27T10:49:40.363Z,76
2019-04-27T10:50:40.980Z,78
2019-04-27T10:51:40.540Z,78
2019-04-27T10:52:52.442Z,79
2019-04-27T10:53:40.359Z,79
2019-04-27T10:54:40.340Z,79
2019-04-27T10:55:40.743Z,79
2019-04-27T10:56:40.396Z,79
2019-04-27T10:57:40.575Z,80
2019-04-27T10:58:40.747Z,80
2019-04-27T10:59:40.405Z,80
2019-04-27T11:00:40.585Z,83
2019-04-27T11:01:40.493Z,83
2019-04-27T11:02:40.353Z,83
2019-04-27T11:03:40.355Z,84
2019-04-27T11:04:40.580Z,84
2019-04-27T11:05:40.610Z,85
2019-04-27T11:06:40.425Z,85
2019-04-27T11:07:40.972Z,85
2019-04-27T11:08:40.542Z,86
2019-04-27T11:09:40.296Z,86
2019-04-27T11:10:40.417Z,87
2019-04-27T11:11:40.599Z,87
2019-04-27T11:12:40.389Z,87
2019-04-27T11:13:40.791Z,88
2019-04-27T11:14:40.812Z,88
2019-04-27T11:15:40.374Z,87
2019-04-27T11:16:40.398Z,87
2019-04-27T11:17:40.820Z,87
2019-04-27T11:18:40.390Z,87
2019-04-27T11:19:40.482Z,87
2019-04-27T11:20:40.871Z,87
2019-04-27T11:21:40.421Z,87
2019-04-27T11:22:40.856Z,87
2019-04-27T11:23:40.562Z,88
2019-04-27T11:24:40.616Z,88
2019-04-27T11:25:40.596Z,87
2019-04-27T11:26:40.443Z,87
2019-04-27T11:27:40.421Z,87
2019-04-27T11:28:42.655Z,87
2019-04-27T11:29:40.638Z,87
2019-04-27T11:30:40.388Z,87
2019-04-27T11:31:40.868Z,86
2019-04-27T11:32:40.577Z,86
2019-04-27T11:33:40.452Z,85
2019-04-27T11:34:40.616Z,85
2019-04-27T11:35:40.889Z,85
2019-04-27T11:36:40.592Z,85
2019-04-27T11:37:40.485Z,85
2019-04-27T11:38:40.613Z,85
2019-04-27T11:39:40.379Z,85
2019-04-27T11:40:40.446Z,85
2019-04-27T11:41:40.801Z,82
2019-04-27T11:42:40.428Z,82
2019-04-27T11:43:40.560Z,82
2019-04-27T11:44:40.653Z,82
2019-04-27T11:45:40.454Z,82
2019-04-27T11:46:40.852Z,82
2019-04-27T11:47:40.732Z,82
2019-04-27T11:48:40.377Z,82
2019-04-27T11:49:40.866Z,82
2019-04-27T11:50:40.986Z,82
2019-04-27T11:51:40.867Z,82
2019-04-27T11:52:40.662Z,82
2019-04-27T11:53:40.589Z,82
2019-04-27T11:54:40.655Z,82
2019-04-27T11:55:40.489Z,82
2019-04-27T11:56:40.604Z,81
2019-04-27T11:57:40.625Z,81
2019-04-27T11:58:40.453Z,82
2019-04-27T11:59:40.456Z,82
2019-04-27T12:00:40.929Z,82
2019-04-27T12:01:40.431Z,81
2019-04-27T12:02:40.561Z,81
2019-04-27T12:03:40.515Z,81
2019-04-27T12:04:40.480Z,81
2019-04-27T12:05:40.606Z,81
2019-04-27T12:06:40.616Z,80
2019-04-27T12:07:40.914Z,80
2019-04-27T12:08:40.469Z,80
2019-04-27T12:09:40.431Z,79
2019-04-27T12:10:40.484Z,79
2019-04-27T12:11:40.486Z,77
2019-04-27T12:12:40.460Z,77
2019-04-27T12:13:40.440Z,77
2019-04-27T12:14:40.670Z,77
2019-04-27T12:15:40.972Z,77
2019-04-27T12:16:40.541Z,77
2019-04-27T12:17:41.063Z,77
2019-04-27T12:18:41.154Z,77
2019-04-27T12:19:40.509Z,77
2019-04-27T12:20:40.543Z,77
2019-04-27T12:21:40.568Z,79
2019-04-27T12:22:40.669Z,79
2019-04-27T12:23:41.343Z,79
2019-04-27T12:24:40.948Z,81
2019-04-27T12:25:40.742Z,81
2019-04-27T12:26:40.490Z,83
2019-04-27T12:27:40.547Z,83
2019-04-27T12:28:40.938Z,83
2019-04-27T12:29:40.610Z,83
2019-04-27T12:30:40.977Z,83
2019-04-27T12:31:42.860Z,83
2019-04-27T12:32:40.539Z,83
2019-04-27T12:33:40.977Z,83
2019-04-27T12:34:40.691Z,83
2019-04-27T12:35:40.596Z,83
2019-04-27T12:36:41.578Z,83
2019-04-27T12:37:40.515Z,84
2019-04-27T12:38:40.747Z,84
2019-04-27T12:39:40.488Z,83
2019-04-27T12:40:40.704Z,83
2019-04-27T12:41:40.964Z,83
2019-04-27T12:42:40.806Z,83
2019-04-27T12:43:40.587Z,83
2019-04-27T12:44:42.380Z,83
2019-04-27T12:45:43.424Z,83
2019-04-27T12:46:40.568Z,83
2019-04-27T12:47:40.631Z,82
2019-04-27T12:48:40.677Z,82
2019-04-27T12:49:40.736Z,82
2019-04-27T12:50:40.619Z,82
2019-04-27T12:51:41.037Z,82
2019-04-27T12:52:40.783Z,80
2019-04-27T12:53:48.268Z,80
2019-04-27T12:54:40.995Z,79
2019-04-27T12:55:40.817Z,79
2019-04-27T12:56:40.568Z,79
2019-04-27T12:57:40.927Z,79
2019-04-27T12:58:40.980Z,79
2019-04-27T12:59:40.965Z,79
2019-04-27T13:00:40.819Z,79
2019-04-27T13:01:40.980Z,79
2019-04-27T13:02:40.981Z,80
2019-04-27T13:03:41.057Z,80
2019-04-27T13:04:40.790Z,80
2019-04-27T13:05:40.586Z,79
2019-04-27T13:06:40.572Z,79
2019-04-27T13:07:40.730Z,79
2019-04-27T13:08:40.586Z,79
2019-04-27T13:09:40.597Z,79
2019-04-27T13:10:41.035Z,77
2019-04-27T13:11:41.078Z,77
2019-04-27T13:12:40.576Z,77
2019-04-27T13:13:40.605Z,77
2019-04-27T13:14:40.614Z,77
2019-04-27T13:15:41.000Z,76
2019-04-27T13:16:40.614Z,76
2019-04-27T13:17:41.035Z,77
2019-04-27T13:18:40.589Z,77
2019-04-27T13:19:40.632Z,77
2019-04-27T13:20:41.116Z,77
2019-04-27T13:21:41.054Z,77
2019-04-27T13:22:40.621Z,75
2019-04-27T13:23:41.121Z,75
2019-04-27T13:24:41.094Z,75
2019-04-27T13:25:40.693Z,74
2019-04-27T13:26:41.065Z,74
2019-04-27T13:27:40.690Z,74
2019-04-27T13:28:40.636Z,74
2019-04-27T13:29:40.694Z,74
2019-04-27T13:30:40.609Z,73
2019-04-27T13:31:40.833Z,73
2019-04-27T13:32:40.637Z,73
2019-04-27T13:33:40.684Z,72
2019-04-27T13:34:40.660Z,72
2019-04-27T13:35:41.081Z,71
2019-04-27T13:36:40.711Z,71
2019-04-27T13:37:41.072Z,71
2019-04-27T13:38:41.075Z,71
2019-04-27T13:39:41.045Z,71
2019-04-27T13:40:41.039Z,71
2019-04-27T13:41:40.659Z,71
2019-04-27T13:42:40.631Z,71
2019-04-27T13:43:40.940Z,71
2019-04-27T13:44:41.068Z,71
2019-04-27T13:45:40.652Z,71
2019-04-27T13:46:41.048Z,71
2019-04-27T13:47:40.707Z,71
2019-04-27T13:48:40.655Z,71
2019-04-27T13:49:41.071Z,71
2019-04-27T13:50:41.213Z,70
2019-04-27T13:51:40.679Z,70
2019-04-27T13:52:40.659Z,70
2019-04-27T13:53:40.924Z,69
2019-04-27T13:54:40.622Z,69
2019-04-27T13:55:40.889Z,69
2019-04-27T13:56:41.516Z,69
2019-04-27T13:57:49.431Z,69
2019-04-27T13:58:41.102Z,70
2019-04-27T13:59:41.759Z,70
2019-04-27T14:00:41.917Z,70
2019-04-27T14:01:40.668Z,70
2019-04-27T14:02:41.099Z,70
2019-04-27T14:03:40.740Z,70
2019-04-27T14:04:41.080Z,70
2019-04-27T14:05:40.939Z,70
2019-04-27T14:06:42.000Z,68
2019-04-27T14:07:40.831Z,68
2019-04-27T14:08:40.718Z,69
2019-04-27T14:09:40.784Z,69
2019-04-27T14:10:41.267Z,69
2019-04-27T14:11:40.947Z,70
2019-04-27T14:12:40.718Z,70
2019-04-27T14:13:41.184Z,70
2019-04-27T14:14:42.879Z,70
2019-04-27T14:15:40.750Z,70
2019-04-27T14:16:43.566Z,71
2019-04-27T14:17:41.244Z,71
2019-04-27T14:18:40.817Z,71
2019-04-27T14:19:41.231Z,71
2019-04-27T14:20:40.839Z,71
2019-04-27T14:21:40.682Z,71
2019-04-27T14:22:40.719Z,71
2019-04-27T14:23:41.304Z,71
2019-04-27T14:24:41.204Z,71
2019-04-27T14:25:40.807Z,71
2019-04-27T14:26:40.750Z,72
2019-04-27T14:27:40.848Z,72
2019-04-27T14:28:40.715Z,73
2019-04-27T14:29:40.758Z,73
2019-04-27T14:30:40.828Z,73
2019-04-27T14:31:40.941Z,72
2019-04-27T14:32:42.273Z,72
2019-04-27T14:33:40.805Z,72
2019-04-27T14:34:41.151Z,74
2019-04-27T14:35:40.797Z,74
2019-04-27T14:36:41.234Z,74
2019-04-27T14:37:40.782Z,74
2019-04-27T14:38:40.742Z,74
2019-04-27T14:39:41.213Z,73
2019-04-27T14:40:40.927Z,73
2019-04-27T14:41:40.800Z,72
2019-04-27T14:42:41.171Z,72